sensor_id;sensor_type;location;lat;lon;timestamp;temperature;humidity
37052;DHT22;22964;52.272;13.356;2023-07-20T00:00:29;21.20;58.40
37052;DHT22;22964;52.272;13.356;2023-07-20T00:03:10;21.30;58.50
37052;DHT22;22964;52.272;13.356;2023-07-20T00:05:36;21.20;59.90
37052;DHT22;22964;52.272;13.356;2023-07-20T00:08:02;21.20;58.50
37052;DHT22;22964;52.272;13.356;2023-07-20T00:10:27;21.20;58.70
37052;DHT22;22964;52.272;13.356;2023-07-20T00:12:53;21.20;58.70
37052;DHT22;22964;52.272;13.356;2023-07-20T00:15:19;21.20;58.80
37052;DHT22;22964;52.272;13.356;2023-07-20T00:17:44;21.20;58.90
37052;DHT22;22964;52.272;13.356;2023-07-20T00:20:10;21.20;58.90
37052;DHT22;22964;52.272;13.356;2023-07-20T00:22:36;21.20;59.10
37052;DHT22;22964;52.272;13.356;2023-07-20T00:25:02;21.20;59.10
37052;DHT22;22964;52.272;13.356;2023-07-20T00:27:28;21.20;59.30
37052;DHT22;22964;52.272;13.356;2023-07-20T00:29:54;21.20;59.30
37052;DHT22;22964;52.272;13.356;2023-07-20T00:32:20;21.20;59.40
37052;DHT22;22964;52.272;13.356;2023-07-20T00:34:45;21.10;59.30
37052;DHT22;22964;52.272;13.356;2023-07-20T00:37:11;21.10;59.40
37052;DHT22;22964;52.272;13.356;2023-07-20T00:39:37;21.10;59.60
37052;DHT22;22964;52.272;13.356;2023-07-20T00:42:04;21.10;59.70
37052;DHT22;22964;52.272;13.356;2023-07-20T00:44:30;21.10;59.80
37052;DHT22;22964;52.272;13.356;2023-07-20T00:46:56;21.10;59.90
37052;DHT22;22964;52.272;13.356;2023-07-20T00:49:22;21.10;59.90
37052;DHT22;22964;52.272;13.356;2023-07-20T00:51:49;21.10;60.00
37052;DHT22;22964;52.272;13.356;2023-07-20T00:54:16;21.00;60.00
37052;DHT22;22964;52.272;13.356;2023-07-20T00:56:42;21.00;60.00
37052;DHT22;22964;52.272;13.356;2023-07-20T00:59:09;21.00;60.00
37052;DHT22;22964;52.272;13.356;2023-07-20T01:01:35;21.00;60.20
37052;DHT22;22964;52.272;13.356;2023-07-20T01:04:00;20.90;60.20
37052;DHT22;22964;52.272;13.356;2023-07-20T01:09:14;20.90;61.50
37052;DHT22;22964;52.272;13.356;2023-07-20T01:11:44;20.90;61.00
37052;DHT22;22964;52.272;13.356;2023-07-20T01:14:14;20.80;60.40
37052;DHT22;22964;52.272;13.356;2023-07-20T01:16:41;20.80;60.90
37052;DHT22;22964;52.272;13.356;2023-07-20T01:19:06;20.80;60.90
37052;DHT22;22964;52.272;13.356;2023-07-20T01:22:03;20.80;61.20
37052;DHT22;22964;52.272;13.356;2023-07-20T01:33:00;20.70;61.60
37052;DHT22;22964;52.272;13.356;2023-07-20T01:35:29;20.70;61.60
37052;DHT22;22964;52.272;13.356;2023-07-20T01:37:55;20.70;61.90
37052;DHT22;22964;52.272;13.356;2023-07-20T01:40:24;20.70;62.00
37052;DHT22;22964;52.272;13.356;2023-07-20T01:42:52;20.70;62.10
37052;DHT22;22964;52.272;13.356;2023-07-20T01:45:18;20.70;62.80
37052;DHT22;22964;52.272;13.356;2023-07-20T01:47:44;20.70;62.30
37052;DHT22;22964;52.272;13.356;2023-07-20T01:50:10;20.70;62.30
37052;DHT22;22964;52.272;13.356;2023-07-20T01:52:35;20.70;62.40
37052;DHT22;22964;52.272;13.356;2023-07-20T01:55:03;20.70;62.50
37052;DHT22;22964;52.272;13.356;2023-07-20T01:57:31;20.70;62.60
37052;DHT22;22964;52.272;13.356;2023-07-20T01:59:57;20.70;62.60
37052;DHT22;22964;52.272;13.356;2023-07-20T02:02:26;20.70;62.70
37052;DHT22;22964;52.272;13.356;2023-07-20T02:04:52;20.70;62.90
37052;DHT22;22964;52.272;13.356;2023-07-20T02:07:17;20.70;62.70
37052;DHT22;22964;52.272;13.356;2023-07-20T02:09:43;20.60;62.50
37052;DHT22;22964;52.272;13.356;2023-07-20T02:12:09;20.60;62.60
37052;DHT22;22964;52.272;13.356;2023-07-20T02:14:35;20.60;62.60
37052;DHT22;22964;52.272;13.356;2023-07-20T02:17:00;20.60;62.50
37052;DHT22;22964;52.272;13.356;2023-07-20T02:19:29;20.60;62.60
37052;DHT22;22964;52.272;13.356;2023-07-20T02:21:55;20.50;62.60
37052;DHT22;22964;52.272;13.356;2023-07-20T02:24:21;20.50;62.50
37052;DHT22;22964;52.272;13.356;2023-07-20T02:26:46;20.50;62.60
37052;DHT22;22964;52.272;13.356;2023-07-20T02:29:12;20.50;62.50
37052;DHT22;22964;52.272;13.356;2023-07-20T02:31:38;20.50;62.50
37052;DHT22;22964;52.272;13.356;2023-07-20T02:34:07;20.50;62.70
37052;DHT22;22964;52.272;13.356;2023-07-20T02:36:34;20.40;63.30
37052;DHT22;22964;52.272;13.356;2023-07-20T02:39:01;20.40;63.10
37052;DHT22;22964;52.272;13.356;2023-07-20T02:41:33;20.40;63.30
37052;DHT22;22964;52.272;13.356;2023-07-20T02:43:58;20.30;63.50
37052;DHT22;22964;52.272;13.356;2023-07-20T02:46:24;20.40;63.70
37052;DHT22;22964;52.272;13.356;2023-07-20T02:48:50;20.40;64.00
37052;DHT22;22964;52.272;13.356;2023-07-20T02:51:16;20.30;64.30
37052;DHT22;22964;52.272;13.356;2023-07-20T02:53:41;20.30;64.30
37052;DHT22;22964;52.272;13.356;2023-07-20T02:56:07;20.40;64.60
37052;DHT22;22964;52.272;13.356;2023-07-20T02:58:34;20.30;64.50
37052;DHT22;22964;52.272;13.356;2023-07-20T03:01:04;20.40;65.00
37052;DHT22;22964;52.272;13.356;2023-07-20T03:03:29;20.40;64.90
37052;DHT22;22964;52.272;13.356;2023-07-20T03:05:55;20.30;65.00
37052;DHT22;22964;52.272;13.356;2023-07-20T03:08:23;20.30;65.10
37052;DHT22;22964;52.272;13.356;2023-07-20T03:10:49;20.30;65.10
37052;DHT22;22964;52.272;13.356;2023-07-20T03:13:15;20.30;65.10
37052;DHT22;22964;52.272;13.356;2023-07-20T03:15:42;20.40;65.40
37052;DHT22;22964;52.272;13.356;2023-07-20T03:18:08;20.40;65.60
37052;DHT22;22964;52.272;13.356;2023-07-20T03:20:35;20.40;65.60
37052;DHT22;22964;52.272;13.356;2023-07-20T03:23:01;20.40;65.80
37052;DHT22;22964;52.272;13.356;2023-07-20T03:25:27;20.40;65.70
37052;DHT22;22964;52.272;13.356;2023-07-20T03:27:52;20.40;65.80
37052;DHT22;22964;52.272;13.356;2023-07-20T03:30:18;20.40;65.90
37052;DHT22;22964;52.272;13.356;2023-07-20T03:32:44;20.40;66.00
37052;DHT22;22964;52.272;13.356;2023-07-20T03:35:10;20.30;66.10
37052;DHT22;22964;52.272;13.356;2023-07-20T03:37:35;20.30;66.20
37052;DHT22;22964;52.272;13.356;2023-07-20T03:40:02;20.30;66.40
37052;DHT22;22964;52.272;13.356;2023-07-20T03:42:29;20.30;66.50
37052;DHT22;22964;52.272;13.356;2023-07-20T03:44:55;20.30;66.40
37052;DHT22;22964;52.272;13.356;2023-07-20T03:47:21;20.30;66.40
37052;DHT22;22964;52.272;13.356;2023-07-20T03:49:47;20.30;66.70
37052;DHT22;22964;52.272;13.356;2023-07-20T03:52:13;20.30;66.90
37052;DHT22;22964;52.272;13.356;2023-07-20T03:54:39;20.30;67.10
37052;DHT22;22964;52.272;13.356;2023-07-20T03:57:04;20.20;67.20
37052;DHT22;22964;52.272;13.356;2023-07-20T03:59:30;20.30;67.20
37052;DHT22;22964;52.272;13.356;2023-07-20T04:01:56;20.30;67.20
37052;DHT22;22964;52.272;13.356;2023-07-20T04:04:22;20.30;67.20
37052;DHT22;22964;52.272;13.356;2023-07-20T04:06:47;20.20;67.10
37052;DHT22;22964;52.272;13.356;2023-07-20T04:09:13;20.20;67.10
37052;DHT22;22964;52.272;13.356;2023-07-20T04:11:39;20.20;67.10
37052;DHT22;22964;52.272;13.356;2023-07-20T04:14:05;20.20;67.20
37052;DHT22;22964;52.272;13.356;2023-07-20T04:16:31;20.20;67.40
37052;DHT22;22964;52.272;13.356;2023-07-20T04:18:58;20.20;67.60
37052;DHT22;22964;52.272;13.356;2023-07-20T04:21:26;20.20;67.80
37052;DHT22;22964;52.272;13.356;2023-07-20T04:23:52;20.20;68.20
37052;DHT22;22964;52.272;13.356;2023-07-20T04:26:18;20.20;68.00
37052;DHT22;22964;52.272;13.356;2023-07-20T04:28:44;20.20;68.20
37052;DHT22;22964;52.272;13.356;2023-07-20T04:31:16;20.20;68.40
37052;DHT22;22964;52.272;13.356;2023-07-20T04:33:44;20.20;68.50
37052;DHT22;22964;52.272;13.356;2023-07-20T04:36:10;20.30;68.50
37052;DHT22;22964;52.272;13.356;2023-07-20T04:38:36;20.30;68.80
37052;DHT22;22964;52.272;13.356;2023-07-20T04:41:22;20.30;68.50
37052;DHT22;22964;52.272;13.356;2023-07-20T04:43:50;20.40;68.30
37052;DHT22;22964;52.272;13.356;2023-07-20T04:46:23;20.40;68.40
37052;DHT22;22964;52.272;13.356;2023-07-20T04:48:49;20.40;68.30
37052;DHT22;22964;52.272;13.356;2023-07-20T04:51:16;20.40;68.30
37052;DHT22;22964;52.272;13.356;2023-07-20T04:53:46;20.40;68.50
37052;DHT22;22964;52.272;13.356;2023-07-20T04:56:12;20.50;68.80
37052;DHT22;22964;52.272;13.356;2023-07-20T04:58:38;20.40;68.90
37052;DHT22;22964;52.272;13.356;2023-07-20T05:01:03;20.40;69.10
37052;DHT22;22964;52.272;13.356;2023-07-20T05:03:30;20.50;69.20
37052;DHT22;22964;52.272;13.356;2023-07-20T05:05:57;20.50;69.20
37052;DHT22;22964;52.272;13.356;2023-07-20T05:08:23;20.50;69.30
37052;DHT22;22964;52.272;13.356;2023-07-20T05:10:49;20.50;69.30
37052;DHT22;22964;52.272;13.356;2023-07-20T05:13:15;20.60;69.20
37052;DHT22;22964;52.272;13.356;2023-07-20T05:15:42;20.60;69.00
37052;DHT22;22964;52.272;13.356;2023-07-20T05:18:11;20.70;69.10
37052;DHT22;22964;52.272;13.356;2023-07-20T05:20:38;20.70;69.10
37052;DHT22;22964;52.272;13.356;2023-07-20T05:23:03;20.70;69.00
37052;DHT22;22964;52.272;13.356;2023-07-20T05:25:29;20.80;69.20
37052;DHT22;22964;52.272;13.356;2023-07-20T05:27:55;20.80;69.30
37052;DHT22;22964;52.272;13.356;2023-07-20T05:30:21;20.80;69.40
37052;DHT22;22964;52.272;13.356;2023-07-20T05:32:46;20.80;69.40
37052;DHT22;22964;52.272;13.356;2023-07-20T05:35:17;20.80;69.40
37052;DHT22;22964;52.272;13.356;2023-07-20T05:37:44;20.90;69.60
37052;DHT22;22964;52.272;13.356;2023-07-20T05:40:10;20.90;69.30
37052;DHT22;22964;52.272;13.356;2023-07-20T05:42:38;20.90;69.20
37052;DHT22;22964;52.272;13.356;2023-07-20T05:45:04;21.00;69.20
37052;DHT22;22964;52.272;13.356;2023-07-20T05:47:30;21.00;69.10
37052;DHT22;22964;52.272;13.356;2023-07-20T05:49:56;21.00;68.90
37052;DHT22;22964;52.272;13.356;2023-07-20T05:52:22;21.10;68.90
37052;DHT22;22964;52.272;13.356;2023-07-20T05:54:47;21.10;68.90
37052;DHT22;22964;52.272;13.356;2023-07-20T05:57:13;21.10;68.90
37052;DHT22;22964;52.272;13.356;2023-07-20T05:59:39;21.20;68.90
37052;DHT22;22964;52.272;13.356;2023-07-20T06:02:06;21.20;68.60
37052;DHT22;22964;52.272;13.356;2023-07-20T06:04:33;21.20;68.70
37052;DHT22;22964;52.272;13.356;2023-07-20T06:06:59;21.20;68.60
37052;DHT22;22964;52.272;13.356;2023-07-20T06:09:24;21.20;68.50
37052;DHT22;22964;52.272;13.356;2023-07-20T06:11:50;21.20;68.40
37052;DHT22;22964;52.272;13.356;2023-07-20T06:14:16;21.30;68.50
37052;DHT22;22964;52.272;13.356;2023-07-20T06:16:42;21.20;68.30
37052;DHT22;22964;52.272;13.356;2023-07-20T06:19:07;21.30;68.10
37052;DHT22;22964;52.272;13.356;2023-07-20T06:21:33;21.30;68.10
37052;DHT22;22964;52.272;13.356;2023-07-20T06:23:59;21.30;68.10
37052;DHT22;22964;52.272;13.356;2023-07-20T06:26:24;21.40;68.40
37052;DHT22;22964;52.272;13.356;2023-07-20T06:28:50;21.40;68.40
37052;DHT22;22964;52.272;13.356;2023-07-20T06:31:16;21.40;68.50
37052;DHT22;22964;52.272;13.356;2023-07-20T06:33:42;21.50;68.40
37052;DHT22;22964;52.272;13.356;2023-07-20T06:36:08;21.50;68.10
37052;DHT22;22964;52.272;13.356;2023-07-20T06:38:33;21.60;67.90
37052;DHT22;22964;52.272;13.356;2023-07-20T06:40:59;21.60;67.80
37052;DHT22;22964;52.272;13.356;2023-07-20T06:43:25;21.70;67.40
37052;DHT22;22964;52.272;13.356;2023-07-20T06:45:53;21.70;67.10
37052;DHT22;22964;52.272;13.356;2023-07-20T06:48:20;21.70;67.00
37052;DHT22;22964;52.272;13.356;2023-07-20T06:50:46;21.70;66.50
37052;DHT22;22964;52.272;13.356;2023-07-20T06:53:12;21.80;66.40
37052;DHT22;22964;52.272;13.356;2023-07-20T06:55:38;21.80;66.40
37052;DHT22;22964;52.272;13.356;2023-07-20T06:58:04;21.70;66.30
37052;DHT22;22964;52.272;13.356;2023-07-20T07:00:29;21.70;66.10
37052;DHT22;22964;52.272;13.356;2023-07-20T07:02:55;21.70;65.80
37052;DHT22;22964;52.272;13.356;2023-07-20T07:05:21;21.70;65.80
37052;DHT22;22964;52.272;13.356;2023-07-20T07:07:47;21.70;65.90
37052;DHT22;22964;52.272;13.356;2023-07-20T07:10:12;21.70;66.00
37052;DHT22;22964;52.272;13.356;2023-07-20T07:12:38;21.70;66.30
37052;DHT22;22964;52.272;13.356;2023-07-20T07:15:05;21.70;66.50
37052;DHT22;22964;52.272;13.356;2023-07-20T07:17:33;21.70;66.30
37052;DHT22;22964;52.272;13.356;2023-07-20T07:20:00;21.80;66.40
37052;DHT22;22964;52.272;13.356;2023-07-20T07:22:26;21.80;66.10
37052;DHT22;22964;52.272;13.356;2023-07-20T07:24:52;21.80;66.40
37052;DHT22;22964;52.272;13.356;2023-07-20T07:27:17;21.90;66.80
37052;DHT22;22964;52.272;13.356;2023-07-20T07:29:43;22.00;67.00
37052;DHT22;22964;52.272;13.356;2023-07-20T07:32:10;22.10;67.20
37052;DHT22;22964;52.272;13.356;2023-07-20T07:34:36;22.20;67.00
37052;DHT22;22964;52.272;13.356;2023-07-20T07:37:03;22.30;65.70
37052;DHT22;22964;52.272;13.356;2023-07-20T07:39:29;22.50;64.60
37052;DHT22;22964;52.272;13.356;2023-07-20T07:41:56;22.60;64.00
37052;DHT22;22964;52.272;13.356;2023-07-20T07:44:21;22.70;63.50
37052;DHT22;22964;52.272;13.356;2023-07-20T07:46:47;22.70;63.00
37052;DHT22;22964;52.272;13.356;2023-07-20T07:49:15;22.70;62.40
37052;DHT22;22964;52.272;13.356;2023-07-20T07:51:41;22.80;62.30
37052;DHT22;22964;52.272;13.356;2023-07-20T07:54:07;22.80;62.30
37052;DHT22;22964;52.272;13.356;2023-07-20T07:56:32;22.90;62.10
37052;DHT22;22964;52.272;13.356;2023-07-20T07:58:58;22.90;61.90
37052;DHT22;22964;52.272;13.356;2023-07-20T08:01:24;23.00;61.20
37052;DHT22;22964;52.272;13.356;2023-07-20T08:03:49;23.00;60.70
37052;DHT22;22964;52.272;13.356;2023-07-20T08:06:16;23.10;60.50
37052;DHT22;22964;52.272;13.356;2023-07-20T08:08:42;23.10;60.40
37052;DHT22;22964;52.272;13.356;2023-07-20T08:11:08;23.20;60.50
37052;DHT22;22964;52.272;13.356;2023-07-20T08:13:34;23.30;60.60
37052;DHT22;22964;52.272;13.356;2023-07-20T08:16:00;23.40;60.90
37052;DHT22;22964;52.272;13.356;2023-07-20T08:18:28;23.50;60.50
37052;DHT22;22964;52.272;13.356;2023-07-20T08:20:53;23.70;60.40
37052;DHT22;22964;52.272;13.356;2023-07-20T08:23:20;23.80;59.30
37052;DHT22;22964;52.272;13.356;2023-07-20T08:25:45;24.00;58.70
37052;DHT22;22964;52.272;13.356;2023-07-20T08:28:13;24.10;58.40
37052;DHT22;22964;52.272;13.356;2023-07-20T08:30:44;24.30;58.40
37052;DHT22;22964;52.272;13.356;2023-07-20T08:33:10;24.40;56.70
37052;DHT22;22964;52.272;13.356;2023-07-20T08:35:37;24.60;56.90
37052;DHT22;22964;52.272;13.356;2023-07-20T08:38:02;24.70;56.70
37052;DHT22;22964;52.272;13.356;2023-07-20T08:40:31;24.80;56.10
37052;DHT22;22964;52.272;13.356;2023-07-20T08:42:59;24.90;55.40
37052;DHT22;22964;52.272;13.356;2023-07-20T08:45:27;25.00;55.10
37052;DHT22;22964;52.272;13.356;2023-07-20T08:47:56;25.00;55.10
37052;DHT22;22964;52.272;13.356;2023-07-20T08:50:22;24.90;54.80
37052;DHT22;22964;52.272;13.356;2023-07-20T08:52:48;25.00;54.70
37052;DHT22;22964;52.272;13.356;2023-07-20T08:55:15;24.90;54.50
37052;DHT22;22964;52.272;13.356;2023-07-20T08:57:45;24.90;54.50
37052;DHT22;22964;52.272;13.356;2023-07-20T09:00:13;24.90;53.80
37052;DHT22;22964;52.272;13.356;2023-07-20T09:02:39;24.90;53.50
37052;DHT22;22964;52.272;13.356;2023-07-20T09:05:08;24.90;53.40
37052;DHT22;22964;52.272;13.356;2023-07-20T09:07:39;24.90;53.40
37052;DHT22;22964;52.272;13.356;2023-07-20T09:10:06;24.90;53.40
37052;DHT22;22964;52.272;13.356;2023-07-20T09:12:35;24.90;54.30
37052;DHT22;22964;52.272;13.356;2023-07-20T09:15:01;25.00;54.10
37052;DHT22;22964;52.272;13.356;2023-07-20T09:17:26;25.10;54.30
37052;DHT22;22964;52.272;13.356;2023-07-20T09:19:52;25.20;53.60
37052;DHT22;22964;52.272;13.356;2023-07-20T09:22:18;25.30;52.70
37052;DHT22;22964;52.272;13.356;2023-07-20T09:24:44;25.30;52.90
37052;DHT22;22964;52.272;13.356;2023-07-20T09:27:10;25.30;52.90
37052;DHT22;22964;52.272;13.356;2023-07-20T09:29:50;25.40;52.60
37052;DHT22;22964;52.272;13.356;2023-07-20T09:32:20;25.50;51.90
37052;DHT22;22964;52.272;13.356;2023-07-20T09:34:46;25.60;52.00
37052;DHT22;22964;52.272;13.356;2023-07-20T09:37:12;25.60;52.30
37052;DHT22;22964;52.272;13.356;2023-07-20T09:39:45;25.70;52.30
37052;DHT22;22964;52.272;13.356;2023-07-20T09:42:12;25.70;51.30
37052;DHT22;22964;52.272;13.356;2023-07-20T09:44:38;25.80;52.30
37052;DHT22;22964;52.272;13.356;2023-07-20T09:47:05;25.80;51.50
37052;DHT22;22964;52.272;13.356;2023-07-20T09:49:31;25.90;51.70
37052;DHT22;22964;52.272;13.356;2023-07-20T09:51:58;25.90;51.60
37052;DHT22;22964;52.272;13.356;2023-07-20T09:54:26;25.90;51.60
37052;DHT22;22964;52.272;13.356;2023-07-20T09:56:53;26.00;51.20
37052;DHT22;22964;52.272;13.356;2023-07-20T09:59:19;26.10;50.90
37052;DHT22;22964;52.272;13.356;2023-07-20T10:01:45;26.10;50.90
37052;DHT22;22964;52.272;13.356;2023-07-20T10:04:11;26.20;51.00
37052;DHT22;22964;52.272;13.356;2023-07-20T10:06:42;26.30;50.30
37052;DHT22;22964;52.272;13.356;2023-07-20T10:09:10;26.30;49.10
37052;DHT22;22964;52.272;13.356;2023-07-20T10:11:37;26.40;49.10
37052;DHT22;22964;52.272;13.356;2023-07-20T10:14:06;26.40;49.20
37052;DHT22;22964;52.272;13.356;2023-07-20T10:16:39;26.40;49.20
37052;DHT22;22964;52.272;13.356;2023-07-20T10:19:47;26.40;49.40
37052;DHT22;22964;52.272;13.356;2023-07-20T10:22:19;26.30;47.60
37052;DHT22;22964;52.272;13.356;2023-07-20T10:24:48;26.30;48.90
37052;DHT22;22964;52.272;13.356;2023-07-20T10:27:15;26.30;48.90
37052;DHT22;22964;52.272;13.356;2023-07-20T10:29:41;26.30;49.00
37052;DHT22;22964;52.272;13.356;2023-07-20T10:32:09;26.30;49.20
37052;DHT22;22964;52.272;13.356;2023-07-20T10:34:34;26.40;49.10
37052;DHT22;22964;52.272;13.356;2023-07-20T10:37:00;26.50;48.50
37052;DHT22;22964;52.272;13.356;2023-07-20T10:39:27;26.60;47.90
37052;DHT22;22964;52.272;13.356;2023-07-20T10:44:26;26.60;46.20
37052;DHT22;22964;52.272;13.356;2023-07-20T10:46:59;26.50;46.80
37052;DHT22;22964;52.272;13.356;2023-07-20T10:49:26;26.40;46.20
37052;DHT22;22964;52.272;13.356;2023-07-20T10:52:00;26.40;47.70
37052;DHT22;22964;52.272;13.356;2023-07-20T10:56:56;26.30;47.50
37052;DHT22;22964;52.272;13.356;2023-07-20T11:01:49;26.20;47.40
37052;DHT22;22964;52.272;13.356;2023-07-20T11:04:15;26.20;47.30
37052;DHT22;22964;52.272;13.356;2023-07-20T11:06:44;26.30;47.40
37052;DHT22;22964;52.272;13.356;2023-07-20T11:09:14;26.30;47.20
37052;DHT22;22964;52.272;13.356;2023-07-20T11:11:46;26.30;46.70
37052;DHT22;22964;52.272;13.356;2023-07-20T11:14:23;26.30;46.60
37052;DHT22;22964;52.272;13.356;2023-07-20T11:16:50;26.40;46.60
37052;DHT22;22964;52.272;13.356;2023-07-20T11:19:22;26.40;47.20
37052;DHT22;22964;52.272;13.356;2023-07-20T11:22:01;26.50;46.70
37052;DHT22;22964;52.272;13.356;2023-07-20T11:24:31;26.50;47.70
37052;DHT22;22964;52.272;13.356;2023-07-20T11:26:56;26.60;47.20
37052;DHT22;22964;52.272;13.356;2023-07-20T11:29:23;26.60;46.90
37052;DHT22;22964;52.272;13.356;2023-07-20T11:31:50;26.70;46.80
37052;DHT22;22964;52.272;13.356;2023-07-20T11:34:19;26.70;46.60
37052;DHT22;22964;52.272;13.356;2023-07-20T11:36:47;26.70;46.40
37052;DHT22;22964;52.272;13.356;2023-07-20T11:39:16;26.70;46.20
37052;DHT22;22964;52.272;13.356;2023-07-20T11:41:58;26.70;46.40
37052;DHT22;22964;52.272;13.356;2023-07-20T11:44:26;26.70;45.40
37052;DHT22;22964;52.272;13.356;2023-07-20T11:49:30;26.70;45.80
37052;DHT22;22964;52.272;13.356;2023-07-20T11:51:57;26.70;46.40
37052;DHT22;22964;52.272;13.356;2023-07-20T11:54:24;26.70;46.40
37052;DHT22;22964;52.272;13.356;2023-07-20T11:56:54;26.70;45.90
37052;DHT22;22964;52.272;13.356;2023-07-20T11:59:20;26.60;45.70
37052;DHT22;22964;52.272;13.356;2023-07-20T12:01:46;26.60;46.10
37052;DHT22;22964;52.272;13.356;2023-07-20T12:04:12;26.60;46.40
37052;DHT22;22964;52.272;13.356;2023-07-20T12:06:38;26.60;46.30
37052;DHT22;22964;52.272;13.356;2023-07-20T12:09:04;26.60;46.30
37052;DHT22;22964;52.272;13.356;2023-07-20T12:11:37;26.60;46.30
37052;DHT22;22964;52.272;13.356;2023-07-20T12:14:09;26.60;45.70
37052;DHT22;22964;52.272;13.356;2023-07-20T12:16:37;26.60;45.90
37052;DHT22;22964;52.272;13.356;2023-07-20T12:19:08;26.50;46.00
37052;DHT22;22964;52.272;13.356;2023-07-20T12:21:36;26.50;46.10
37052;DHT22;22964;52.272;13.356;2023-07-20T12:24:03;26.40;46.40
37052;DHT22;22964;52.272;13.356;2023-07-20T12:26:33;26.40;46.40
37052;DHT22;22964;52.272;13.356;2023-07-20T12:28:59;26.30;46.30
37052;DHT22;22964;52.272;13.356;2023-07-20T12:31:26;26.40;46.90
37052;DHT22;22964;52.272;13.356;2023-07-20T12:33:53;26.30;46.70
37052;DHT22;22964;52.272;13.356;2023-07-20T12:36:20;26.40;46.80
37052;DHT22;22964;52.272;13.356;2023-07-20T12:38:47;26.50;46.90
37052;DHT22;22964;52.272;13.356;2023-07-20T12:41:13;26.50;46.80
37052;DHT22;22964;52.272;13.356;2023-07-20T12:43:45;26.60;46.70
37052;DHT22;22964;52.272;13.356;2023-07-20T12:46:13;26.70;46.30
37052;DHT22;22964;52.272;13.356;2023-07-20T12:48:39;26.70;46.10
37052;DHT22;22964;52.272;13.356;2023-07-20T12:51:08;26.70;46.00
37052;DHT22;22964;52.272;13.356;2023-07-20T12:53:34;26.70;45.90
37052;DHT22;22964;52.272;13.356;2023-07-20T12:56:00;26.70;45.90
37052;DHT22;22964;52.272;13.356;2023-07-20T12:58:27;26.70;46.00
37052;DHT22;22964;52.272;13.356;2023-07-20T13:00:53;26.70;46.00
37052;DHT22;22964;52.272;13.356;2023-07-20T13:03:19;26.60;45.90
37052;DHT22;22964;52.272;13.356;2023-07-20T13:05:48;26.60;45.80
37052;DHT22;22964;52.272;13.356;2023-07-20T13:08:14;26.60;44.80
37052;DHT22;22964;52.272;13.356;2023-07-20T13:10:40;26.70;44.70
37052;DHT22;22964;52.272;13.356;2023-07-20T13:13:06;26.70;44.70
37052;DHT22;22964;52.272;13.356;2023-07-20T13:15:41;26.80;44.50
37052;DHT22;22964;52.272;13.356;2023-07-20T13:18:07;26.90;43.50
37052;DHT22;22964;52.272;13.356;2023-07-20T13:20:32;27.00;44.00
37052;DHT22;22964;52.272;13.356;2023-07-20T13:22:58;27.10;43.00
37052;DHT22;22964;52.272;13.356;2023-07-20T13:25:24;27.10;43.00
37052;DHT22;22964;52.272;13.356;2023-07-20T13:27:50;27.10;42.20
37052;DHT22;22964;52.272;13.356;2023-07-20T13:30:16;27.20;42.20
37052;DHT22;22964;52.272;13.356;2023-07-20T13:32:45;27.20;42.40
37052;DHT22;22964;52.272;13.356;2023-07-20T13:35:11;27.10;41.90
37052;DHT22;22964;52.272;13.356;2023-07-20T13:37:38;27.10;42.40
37052;DHT22;22964;52.272;13.356;2023-07-20T13:40:04;27.20;43.10
37052;DHT22;22964;52.272;13.356;2023-07-20T13:42:31;27.30;42.80
37052;DHT22;22964;52.272;13.356;2023-07-20T13:44:57;27.40;42.90
37052;DHT22;22964;52.272;13.356;2023-07-20T13:47:23;27.50;42.90
37052;DHT22;22964;52.272;13.356;2023-07-20T13:49:49;27.70;42.50
37052;DHT22;22964;52.272;13.356;2023-07-20T13:52:15;27.80;42.80
37052;DHT22;22964;52.272;13.356;2023-07-20T13:54:41;28.00;42.60
37052;DHT22;22964;52.272;13.356;2023-07-20T13:57:06;28.10;42.80
37052;DHT22;22964;52.272;13.356;2023-07-20T13:59:32;28.20;42.60
37052;DHT22;22964;52.272;13.356;2023-07-20T14:01:58;28.40;42.20
37052;DHT22;22964;52.272;13.356;2023-07-20T14:04:23;28.60;41.90
37052;DHT22;22964;52.272;13.356;2023-07-20T14:06:50;28.70;41.70
37052;DHT22;22964;52.272;13.356;2023-07-20T14:09:15;28.80;41.80
37052;DHT22;22964;52.272;13.356;2023-07-20T14:11:41;29.00;41.20
37052;DHT22;22964;52.272;13.356;2023-07-20T14:14:07;29.10;41.30
37052;DHT22;22964;52.272;13.356;2023-07-20T14:16:33;29.20;40.50
37052;DHT22;22964;52.272;13.356;2023-07-20T14:18:59;29.40;40.60
37052;DHT22;22964;52.272;13.356;2023-07-20T14:21:24;29.50;39.70
37052;DHT22;22964;52.272;13.356;2023-07-20T14:23:51;29.60;39.10
37052;DHT22;22964;52.272;13.356;2023-07-20T14:26:21;29.70;37.90
37052;DHT22;22964;52.272;13.356;2023-07-20T14:28:47;29.80;37.70
37052;DHT22;22964;52.272;13.356;2023-07-20T14:31:13;29.80;37.90
37052;DHT22;22964;52.272;13.356;2023-07-20T14:33:39;29.90;38.20
37052;DHT22;22964;52.272;13.356;2023-07-20T14:36:05;29.90;38.40
37052;DHT22;22964;52.272;13.356;2023-07-20T14:38:33;30.00;37.80
37052;DHT22;22964;52.272;13.356;2023-07-20T14:40:59;30.10;37.70
37052;DHT22;22964;52.272;13.356;2023-07-20T14:43:24;30.20;37.70
37052;DHT22;22964;52.272;13.356;2023-07-20T14:45:50;30.30;36.60
37052;DHT22;22964;52.272;13.356;2023-07-20T14:48:15;30.40;36.50
37052;DHT22;22964;52.272;13.356;2023-07-20T14:50:41;30.40;35.60
37052;DHT22;22964;52.272;13.356;2023-07-20T14:53:08;30.30;34.80
37052;DHT22;22964;52.272;13.356;2023-07-20T14:55:34;30.20;34.80
37052;DHT22;22964;52.272;13.356;2023-07-20T14:57:59;30.20;36.20
37052;DHT22;22964;52.272;13.356;2023-07-20T15:00:25;30.10;35.50
37052;DHT22;22964;52.272;13.356;2023-07-20T15:02:51;30.10;35.00
37052;DHT22;22964;52.272;13.356;2023-07-20T15:05:24;30.10;35.30
37052;DHT22;22964;52.272;13.356;2023-07-20T15:07:50;30.10;35.40
37052;DHT22;22964;52.272;13.356;2023-07-20T15:10:16;30.10;35.80
37052;DHT22;22964;52.272;13.356;2023-07-20T15:12:42;30.20;35.80
37052;DHT22;22964;52.272;13.356;2023-07-20T15:15:12;30.30;35.90
37052;DHT22;22964;52.272;13.356;2023-07-20T15:17:40;30.40;34.90
37052;DHT22;22964;52.272;13.356;2023-07-20T15:20:08;30.50;34.90
37052;DHT22;22964;52.272;13.356;2023-07-20T15:22:34;30.50;34.50
37052;DHT22;22964;52.272;13.356;2023-07-20T15:25:05;30.50;34.80
37052;DHT22;22964;52.272;13.356;2023-07-20T15:27:32;30.50;34.70
37052;DHT22;22964;52.272;13.356;2023-07-20T15:29:58;30.60;34.40
37052;DHT22;22964;52.272;13.356;2023-07-20T15:32:24;30.60;34.30
37052;DHT22;22964;52.272;13.356;2023-07-20T15:34:51;30.60;34.40